Time;durP1;ratioP1;P1;durP2;ratioP2;P2;SDS_P1;SDS_P2;PMS_P1;PMS_P2;Temp;Humidity;BMP_temperature;BMP_pressure;BME280_temperature;BME280_humidity;BME280_pressure;Samples;Min_cycle;Max_cycle;Signal;HPM_P1;HPM_P2
2022/05/17 00:01:45;;;;;;;8.18;1.77;;;14.60;99.90;;;;;;5036522;28;20060;-77
2022/05/17 00:04:11;;;;;;;3.63;1.25;;;14.60;99.90;;;;;;5044700;28;20029;-78
2022/05/17 00:06:38;;;;;;;5.53;1.73;;;14.50;99.90;;;;;;5019039;28;20053;-78
2022/05/17 00:09:05;;;;;;;6.40;1.58;;;14.50;99.90;;;;;;5044790;28;20388;-78
2022/05/17 00:11:33;;;;;;;5.18;1.38;;;14.50;99.90;;;;;;5027355;28;20036;-78
2022/05/17 00:14:01;;;;;;;6.88;1.60;;;14.50;99.90;;;;;;5043303;28;20381;-78
2022/05/17 00:16:27;;;;;;;5.88;1.77;;;14.40;99.90;;;;;;5042989;28;20033;-78
2022/05/17 00:18:54;;;;;;;5.13;1.38;;;14.40;99.90;;;;;;5043369;28;20029;-78
2022/05/17 00:21:21;;;;;;;5.35;1.52;;;14.40;99.90;;;;;;5045409;28;20025;-78
2022/05/17 00:23:47;;;;;;;5.47;1.33;;;14.40;99.90;;;;;;5041684;28;20037;-78
2022/05/17 00:26:14;;;;;;;5.57;1.42;;;14.30;99.90;;;;;;5024735;28;20048;-78
2022/05/17 00:28:42;;;;;;;5.40;1.20;;;14.30;99.90;;;;;;5029864;28;20376;-78
2022/05/17 00:31:09;;;;;;;7.22;1.20;;;14.30;99.90;;;;;;5045143;28;20029;-78
2022/05/17 00:33:36;;;;;;;3.22;1.27;;;14.20;99.90;;;;;;5043802;28;20029;-78
2022/05/17 00:36:03;;;;;;;6.38;1.95;;;14.30;99.90;;;;;;5010499;28;20493;-78
2022/05/17 00:38:29;;;;;;;7.38;1.90;;;14.20;99.90;;;;;;5043147;28;20496;-78
2022/05/17 00:40:56;;;;;;;6.78;1.70;;;14.30;99.90;;;;;;5045401;28;20055;-78
2022/05/17 00:46:35;;;;;;;3.08;1.23;;;14.50;99.90;;;;;;5040921;28;20407;-78
2022/05/17 00:49:02;;;;;;;4.85;1.90;;;14.60;99.90;;;;;;5045437;28;20020;-78
2022/05/17 00:51:29;;;;;;;7.47;2.10;;;14.60;99.90;;;;;;5042688;28;20037;-78
2022/05/17 00:54:10;;;;;;;5.70;1.48;;;14.70;99.90;;;;;;5060391;28;20021;-78
2022/05/17 00:56:49;;;;;;;7.57;2.05;;;14.70;99.90;;;;;;5024537;28;20040;-78
2022/05/17 00:59:17;;;;;;;6.28;1.73;;;14.70;99.90;;;;;;5045891;28;20024;-78
2022/05/17 01:01:51;;;;;;;5.65;1.83;;;14.70;99.90;;;;;;5043768;28;20048;-78
2022/05/17 01:04:24;;;;;;;6.35;1.60;;;14.70;99.90;;;;;;5042324;28;20488;-78
2022/05/17 01:07:18;;;;;;;5.53;1.70;;;14.60;99.90;;;;;;5040161;28;20029;-78
2022/05/17 01:09:45;;;;;;;5.72;1.83;;;14.60;99.90;;;;;;5041375;28;20029;-78
2022/05/17 01:12:14;;;;;;;5.90;1.42;;;14.60;99.90;;;;;;5024161;28;20025;-78
2022/05/17 01:14:57;;;;;;;6.32;1.50;;;14.50;99.90;;;;;;5045342;28;20033;-78
2022/05/17 01:17:33;;;;;;;8.15;1.73;;;14.50;99.90;;;;;;5039359;28;20369;-78
2022/05/17 01:20:03;;;;;;;7.22;1.75;;;14.50;99.90;;;;;;5043188;28;20028;-78
2022/05/17 01:22:30;;;;;;;7.07;1.77;;;14.40;99.90;;;;;;5041111;28;20036;-77
2022/05/17 01:24:57;;;;;;;7.22;1.70;;;14.40;99.90;;;;;;5045779;28;20033;-77
2022/05/17 01:27:49;;;;;;;6.40;2.03;;;14.30;99.90;;;;;;5042165;28;21104;-77
2022/05/17 01:30:19;;;;;;;5.45;1.20;;;14.40;99.90;;;;;;5029178;28;20029;-78
2022/05/17 01:32:46;;;;;;;7.15;1.90;;;14.40;99.90;;;;;;5046940;28;20025;-78
2022/05/17 01:35:13;;;;;;;7.80;2.00;;;14.40;99.90;;;;;;5044625;28;20388;-78
2022/05/17 01:37:39;;;;;;;6.47;1.88;;;14.50;99.90;;;;;;5049999;28;20127;-77
2022/05/17 01:40:07;;;;;;;5.72;2.15;;;14.50;99.90;;;;;;5028954;28;20051;-77
2022/05/17 01:42:34;;;;;;;7.15;2.22;;;14.60;99.90;;;;;;5024876;28;20028;-78
2022/05/17 01:45:03;;;;;;;4.82;1.60;;;14.70;99.90;;;;;;5043696;28;20052;-78
2022/05/17 01:47:30;;;;;;;5.97;1.83;;;14.80;99.90;;;;;;5005978;28;20056;-78
2022/05/17 01:49:57;;;;;;;5.82;1.90;;;14.80;99.90;;;;;;5028314;28;20064;-78
2022/05/17 01:52:30;;;;;;;8.25;2.20;;;14.80;99.90;;;;;;5025642;28;20484;-78
2022/05/17 01:55:14;;;;;;;5.90;1.70;;;14.80;99.90;;;;;;5038268;28;20037;-78
2022/05/17 01:57:41;;;;;;;5.97;1.58;;;14.80;99.90;;;;;;5048005;28;20044;-78
2022/05/17 02:00:11;;;;;;;5.18;1.70;;;14.80;99.90;;;;;;5043077;28;20032;-78
2022/05/17 02:02:39;;;;;;;5.60;1.70;;;14.80;99.90;;;;;;5039843;28;20045;-77
2022/05/17 02:05:06;;;;;;;8.60;2.10;;;14.70;99.90;;;;;;5029445;28;20049;-77
2022/05/17 02:07:32;;;;;;;6.15;1.67;;;14.70;99.90;;;;;;5052014;28;20511;-77
2022/05/17 02:09:59;;;;;;;5.40;1.80;;;14.60;99.90;;;;;;5030433;28;20043;-77
2022/05/17 02:12:25;;;;;;;9.05;2.08;;;14.60;99.90;;;;;;5042634;28;20036;-77
2022/05/17 02:14:52;;;;;;;5.93;2.08;;;14.60;99.90;;;;;;5030659;28;20039;-77
2022/05/17 02:17:19;;;;;;;9.90;2.42;;;14.60;99.90;;;;;;5059365;28;20388;-77
2022/05/17 02:19:46;;;;;;;7.97;2.28;;;14.60;99.90;;;;;;5046375;28;20480;-77
2022/05/17 02:22:12;;;;;;;6.82;2.40;;;14.60;99.90;;;;;;5008723;28;20445;-77
2022/05/17 02:24:40;;;;;;;4.32;2.17;;;14.60;99.90;;;;;;5064934;28;20400;-77
2022/05/17 02:27:09;;;;;;;5.47;2.30;;;14.60;99.90;;;;;;5058572;28;20035;-77
2022/05/17 02:29:38;;;;;;;4.70;1.80;;;14.70;99.90;;;;;;5027856;28;20032;-77
2022/05/17 02:32:08;;;;;;;4.40;1.83;;;14.70;99.90;;;;;;5043843;28;20033;-77
2022/05/17 02:34:36;;;;;;;5.70;2.28;;;14.70;99.90;;;;;;5061375;28;20029;-77
2022/05/17 02:37:04;;;;;;;5.95;2.30;;;14.70;99.90;;;;;;5043638;28;20051;-77
2022/05/17 02:39:34;;;;;;;5.40;1.80;;;14.70;99.90;;;;;;5015878;28;20060;-77
2022/05/17 02:42:04;;;;;;;7.38;2.65;;;14.70;99.90;;;;;;5061267;28;20020;-77
2022/05/17 02:44:30;;;;;;;5.78;2.78;;;14.70;99.90;;;;;;5062473;28;20029;-77
2022/05/17 02:46:59;;;;;;;6.47;2.40;;;14.70;99.90;;;;;;5012647;28;20036;-78
2022/05/17 02:49:26;;;;;;;4.57;2.40;;;14.70;99.90;;;;;;5047941;28;20016;-77
2022/05/17 02:51:54;;;;;;;6.82;2.90;;;14.80;99.90;;;;;;5065501;28;20028;-77
2022/05/17 02:54:24;;;;;;;5.45;2.20;;;14.80;99.90;;;;;;5046485;28;20039;-78
2022/05/17 02:56:50;;;;;;;5.85;2.30;;;14.70;99.90;;;;;;5012463;28;20500;-78
2022/05/17 02:59:18;;;;;;;7.40;2.88;;;14.70;99.90;;;;;;5028757;28;20032;-77
2022/05/17 03:01:45;;;;;;;6.38;2.45;;;14.70;99.90;;;;;;5048528;28;20098;-77
2022/05/17 03:04:15;;;;;;;6.40;1.95;;;14.60;99.90;;;;;;5031229;28;20040;-78
2022/05/17 03:06:43;;;;;;;4.32;2.00;;;14.60;99.90;;;;;;5028248;28;20047;-77
2022/05/17 03:09:10;;;;;;;6.07;1.88;;;14.60;99.90;;;;;;5062782;28;20032;-77
2022/05/17 03:11:41;;;;;;;6.28;2.05;;;14.50;99.90;;;;;;5061756;28;20032;-78
2022/05/17 03:14:14;;;;;;;4.32;2.05;;;14.40;99.90;;;;;;5063367;28;20024;-77
2022/05/17 03:16:41;;;;;;;6.75;1.73;;;14.40;99.90;;;;;;5059469;28;20031;-78
2022/05/17 03:19:07;;;;;;;4.13;1.17;;;14.40;99.90;;;;;;5047337;28;20508;-77
2022/05/17 03:21:34;;;;;;;3.53;1.90;;;14.30;99.90;;;;;;5060554;28;20376;-77
2022/05/17 03:24:01;;;;;;;6.47;2.03;;;14.30;99.90;;;;;;5063249;28;20364;-77
2022/05/17 03:26:29;;;;;;;11.05;2.55;;;14.30;99.90;;;;;;5058945;28;20043;-77
2022/05/17 03:28:58;;;;;;;4.60;1.90;;;14.30;99.90;;;;;;5026946;28;20356;-77
2022/05/17 03:31:25;;;;;;;6.93;2.65;;;14.30;99.90;;;;;;5062204;28;20028;-77
2022/05/17 03:33:52;;;;;;;5.13;2.35;;;14.30;99.90;;;;;;5046478;28;20017;-77
2022/05/17 03:36:19;;;;;;;5.25;2.08;;;14.30;99.90;;;;;;5059422;28;20033;-77
2022/05/17 03:38:45;;;;;;;5.65;2.17;;;14.30;99.90;;;;;;5030166;28;20020;-77
2022/05/17 03:41:13;;;;;;;6.07;2.67;;;14.30;99.90;;;;;;5045129;28;20044;-77
2022/05/17 03:43:39;;;;;;;5.75;2.13;;;14.30;99.90;;;;;;5035244;28;20037;-77
2022/05/17 03:46:10;;;;;;;6.25;2.40;;;14.30;99.90;;;;;;5045858;28;20033;-77
2022/05/17 03:48:37;;;;;;;3.50;1.50;;;14.30;99.90;;;;;;5049500;28;20490;-77
2022/05/17 03:51:30;;;;;;;5.32;1.90;;;14.30;99.90;;;;;;5048346;28;20040;-77
2022/05/17 03:53:57;;;;;;;7.55;2.30;;;14.30;99.90;;;;;;5062690;28;20043;-77
2022/05/17 03:56:23;;;;;;;5.38;2.10;;;14.30;99.90;;;;;;5062211;28;20468;-78
2022/05/17 03:58:50;;;;;;;7.47;2.30;;;14.30;99.90;;;;;;5069412;28;20036;-78
2022/05/17 04:01:18;;;;;;;3.88;2.40;;;14.40;99.90;;;;;;5047301;28;20035;-77
2022/05/17 04:03:44;;;;;;;5.72;2.53;;;14.40;99.90;;;;;;5046994;28;20040;-78
2022/05/17 04:06:11;;;;;;;7.82;2.53;;;14.40;99.90;;;;;;5063557;28;20032;-77
2022/05/17 04:08:38;;;;;;;4.80;2.67;;;14.50;99.90;;;;;;5067916;28;20036;-77
2022/05/17 04:11:05;;;;;;;6.63;2.45;;;14.60;99.90;;;;;;5066081;28;20032;-78
2022/05/17 04:13:33;;;;;;;7.18;3.10;;;14.70;99.90;;;;;;5029617;28;20028;-78
2022/05/17 04:16:00;;;;;;;5.80;3.08;;;14.80;99.90;;;;;;5030558;28;20020;-78
2022/05/17 04:18:28;;;;;;;4.97;2.42;;;14.90;99.90;;;;;;5034989;28;20028;-78
2022/05/17 04:21:02;;;;;;;6.25;2.20;;;14.90;99.90;;;;;;5045565;28;20044;-78
2022/05/17 04:23:34;;;;;;;5.22;2.00;;;15.00;99.90;;;;;;5047580;28;20051;-78
2022/05/17 04:26:02;;;;;;;5.90;2.38;;;15.10;99.90;;;;;;5064856;28;20021;-78
2022/05/17 04:28:29;;;;;;;4.82;2.40;;;15.20;99.90;;;;;;5031876;28;20051;-78
2022/05/17 04:30:55;;;;;;;6.78;2.95;;;15.30;99.90;;;;;;5049196;28;20021;-78
2022/05/17 04:33:23;;;;;;;6.05;2.35;;;15.30;99.90;;;;;;5050216;28;20030;-80
2022/05/17 04:35:50;;;;;;;5.43;2.50;;;15.40;99.90;;;;;;5066464;28;20035;-78
2022/05/17 04:38:17;;;;;;;6.18;2.72;;;15.50;99.90;;;;;;5069160;28;20036;-78
2022/05/17 04:40:46;;;;;;;5.45;2.67;;;15.60;99.90;;;;;;5068372;28;20044;-79
2022/05/17 04:43:12;;;;;;;6.65;2.20;;;15.70;99.90;;;;;;5068123;28;20043;-78
2022/05/17 04:45:39;;;;;;;4.60;2.78;;;15.80;99.90;;;;;;5048440;28;20044;-79
2022/05/17 04:48:06;;;;;;;6.18;3.53;;;15.80;99.90;;;;;;5028305;28;20480;-79
2022/05/17 04:50:32;;;;;;;6.32;3.25;;;15.90;99.90;;;;;;5013029;28;20371;-79
2022/05/17 04:52:59;;;;;;;6.95;2.90;;;15.90;99.90;;;;;;5031628;28;20032;-79
2022/05/17 04:55:28;;;;;;;6.90;2.50;;;15.90;99.90;;;;;;5064660;28;20491;-79
2022/05/17 04:57:55;;;;;;;4.10;2.25;;;16.00;99.90;;;;;;5063701;28;20036;-79
2022/05/17 05:00:25;;;;;;;5.80;1.90;;;16.00;99.90;;;;;;5054290;28;20040;-79
2022/05/17 05:02:51;;;;;;;5.78;2.55;;;16.10;99.90;;;;;;5048880;28;20020;-78
2022/05/17 05:05:19;;;;;;;5.10;1.95;;;16.20;99.90;;;;;;5065613;28;20028;-79
2022/05/17 05:07:45;;;;;;;8.38;3.25;;;16.20;99.90;;;;;;5031122;28;20053;-78
2022/05/17 05:10:13;;;;;;;5.03;2.15;;;16.40;99.90;;;;;;5047753;28;20025;-78
2022/05/17 05:12:40;;;;;;;5.97;2.53;;;16.40;99.90;;;;;;5013210;28;20033;-79
2022/05/17 05:15:08;;;;;;;6.03;2.20;;;16.50;99.90;;;;;;5050242;28;20025;-80
2022/05/17 05:17:38;;;;;;;6.13;1.95;;;16.60;99.90;;;;;;5030783;28;20039;-86
2022/05/17 05:20:07;;;;;;;7.53;3.90;;;16.70;99.90;;;;;;5046158;28;20024;-78
2022/05/17 05:22:34;;;;;;;4.75;2.28;;;16.80;99.90;;;;;;5066857;28;20020;-78
2022/05/17 05:25:00;;;;;;;6.22;2.47;;;16.90;99.90;;;;;;5036495;28;20040;-78
2022/05/17 05:27:36;;;;;;;5.93;3.13;;;16.90;99.90;;;;;;5065077;28;20037;-81
2022/05/17 05:30:05;;;;;;;6.10;2.35;;;17.10;99.90;;;;;;5066084;28;21172;-79
2022/05/17 05:32:32;;;;;;;8.35;3.20;;;17.20;99.90;;;;;;5051030;28;20028;-78
2022/05/17 05:34:58;;;;;;;4.47;1.90;;;17.30;99.90;;;;;;5032172;28;20422;-78
2022/05/17 05:37:24;;;;;;;5.78;2.42;;;17.40;99.90;;;;;;5064957;28;20043;-79
2022/05/17 05:39:51;;;;;;;4.93;1.40;;;17.40;99.90;;;;;;5002037;28;20150;-79
2022/05/17 05:42:19;;;;;;;6.95;2.20;;;17.50;99.90;;;;;;5048758;28;20388;-77
2022/05/17 05:45:01;;;;;;;4.82;1.90;;;17.70;99.90;;;;;;5052843;28;20090;-80
2022/05/17 05:47:28;;;;;;;4.28;1.63;;;17.90;99.90;;;;;;5047151;28;20051;-79
2022/05/17 05:49:58;;;;;;;5.82;1.27;;;18.00;99.90;;;;;;5065474;28;20017;-78
2022/05/17 05:52:27;;;;;;;6.45;1.33;;;18.10;99.90;;;;;;5065577;28;20494;-78
2022/05/17 05:54:54;;;;;;;2.03;0.88;;;18.20;99.90;;;;;;5030632;28;20033;-78
2022/05/17 05:57:20;;;;;;;4.05;0.70;;;18.30;99.90;;;;;;5064679;28;20044;-79
2022/05/17 05:59:47;;;;;;;2.45;0.70;;;18.30;99.90;;;;;;5061052;28;20047;-79
2022/05/17 06:02:13;;;;;;;4.20;0.80;;;18.30;99.90;;;;;;5048709;28;20064;-79
2022/05/17 06:04:40;;;;;;;3.17;1.10;;;18.40;99.90;;;;;;5063022;28;20146;-79
2022/05/17 06:07:07;;;;;;;4.10;1.35;;;18.40;99.90;;;;;;5060117;28;20047;-79
2022/05/17 06:09:36;;;;;;;3.72;1.23;;;18.40;99.90;;;;;;5032858;28;20028;-81
2022/05/17 06:12:07;;;;;;;7.13;1.52;;;18.50;99.90;;;;;;5045251;28;20423;-78
2022/05/17 06:14:34;;;;;;;2.78;0.70;;;18.50;99.90;;;;;;5056123;28;20021;-78
2022/05/17 06:17:01;;;;;;;4.55;0.90;;;18.50;99.90;;;;;;5007817;28;20045;-78
2022/05/17 06:19:27;;;;;;;3.97;0.80;;;18.60;99.90;;;;;;5063664;28;20071;-78
2022/05/17 06:21:54;;;;;;;2.97;0.70;;;18.60;99.90;;;;;;5014015;28;20039;-78
2022/05/17 06:24:20;;;;;;;3.45;0.88;;;18.70;99.90;;;;;;5046134;28;20036;-79
2022/05/17 06:26:47;;;;;;;3.88;0.80;;;18.80;99.90;;;;;;5026477;28;20037;-78
2022/05/17 06:29:13;;;;;;;6.65;1.13;;;18.90;99.90;;;;;;5032334;28;20387;-78
2022/05/17 06:31:40;;;;;;;4.95;0.90;;;19.00;99.90;;;;;;5047869;28;20535;-78
2022/05/17 06:34:09;;;;;;;5.57;1.17;;;19.00;99.90;;;;;;5065637;28;20025;-78
2022/05/17 06:36:36;;;;;;;3.35;0.70;;;19.00;99.90;;;;;;5044367;28;20040;-79
2022/05/17 06:39:05;;;;;;;4.80;0.90;;;19.10;99.90;;;;;;5029218;28;20037;-79
2022/05/17 06:41:32;;;;;;;6.07;1.10;;;19.20;99.90;;;;;;5048008;28;20032;-79
2022/05/17 06:43:59;;;;;;;3.13;0.90;;;19.20;99.90;;;;;;5034218;28;20028;-79
2022/05/17 06:46:26;;;;;;;5.68;0.93;;;19.30;99.90;;;;;;4996109;28;20041;-79
2022/05/17 06:48:52;;;;;;;3.17;1.10;;;19.30;99.90;;;;;;5065761;28;20029;-78
2022/05/17 06:51:19;;;;;;;5.05;1.27;;;19.50;99.90;;;;;;4999502;28;20037;-78
2022/05/17 06:53:46;;;;;;;3.58;0.88;;;19.70;99.90;;;;;;5027343;28;20025;-78
2022/05/17 06:56:14;;;;;;;5.78;0.90;;;19.80;99.90;;;;;;5044885;28;20029;-79
2022/05/17 06:58:41;;;;;;;5.53;0.85;;;20.00;99.90;;;;;;5030275;28;20051;-79
2022/05/17 07:01:08;;;;;;;4.28;0.88;;;20.20;99.90;;;;;;5013312;28;20041;-79
2022/05/17 07:03:34;;;;;;;5.60;1.10;;;20.30;99.30;;;;;;5045131;28;20029;-79
2022/05/17 07:06:02;;;;;;;4.80;0.73;;;20.40;99.10;;;;;;5028898;28;20029;-79
2022/05/17 07:08:28;;;;;;;4.32;0.70;;;20.70;98.60;;;;;;5044636;28;20052;-79
2022/05/17 07:13:40;;;;;;;3.55;0.60;;;21.00;97.60;;;;;;5046925;28;20032;-79
2022/05/17 07:16:06;;;;;;;4.53;0.70;;;21.10;97.40;;;;;;5048100;28;20661;-79
2022/05/17 07:18:36;;;;;;;5.35;0.80;;;21.20;97.10;;;;;;5017238;28;20556;-79
2022/05/17 07:21:07;;;;;;;4.75;0.85;;;21.20;96.70;;;;;;5047019;28;20040;-79
2022/05/17 07:23:36;;;;;;;6.47;1.00;;;21.20;96.60;;;;;;5052011;28;20033;-78
2022/05/17 07:26:06;;;;;;;5.78;0.77;;;21.10;96.10;;;;;;5064022;28;20044;-78
2022/05/17 07:28:38;;;;;;;3.55;0.70;;;21.00;96.00;;;;;;5048419;28;20040;-79
2022/05/17 07:31:04;;;;;;;4.88;0.60;;;20.90;96.00;;;;;;5068037;28;20041;-79
2022/05/17 07:33:33;;;;;;;4.90;0.90;;;20.80;96.00;;;;;;5048568;28;20408;-79
2022/05/17 07:36:01;;;;;;;6.03;0.73;;;20.80;95.90;;;;;;5047331;28;20028;-79
2022/05/17 07:38:27;;;;;;;4.90;0.70;;;20.70;95.80;;;;;;5063788;28;20028;-79
2022/05/17 07:40:56;;;;;;;4.75;0.90;;;20.60;95.70;;;;;;5050139;28;20036;-78
2022/05/17 07:43:22;;;;;;;3.95;0.60;;;20.50;95.50;;;;;;5049709;28;20483;-79
2022/05/17 07:45:51;;;;;;;4.20;0.90;;;20.50;95.50;;;;;;5048930;28;20037;-79
2022/05/17 07:48:21;;;;;;;3.55;0.57;;;20.50;95.90;;;;;;5065149;28;20099;-79
2022/05/17 07:50:48;;;;;;;4.63;1.00;;;20.40;95.70;;;;;;5042166;28;20967;-79
2022/05/17 07:53:17;;;;;;;3.13;0.68;;;20.40;95.70;;;;;;5036682;28;20035;-79
2022/05/17 07:55:46;;;;;;;3.47;0.60;;;20.40;95.70;;;;;;5047896;28;20127;-79
2022/05/17 07:58:13;;;;;;;5.07;0.52;;;20.30;95.70;;;;;;5062998;28;20040;-78
2022/05/17 08:00:42;;;;;;;4.32;0.65;;;20.30;95.80;;;;;;5066162;28;20559;-78
2022/05/17 08:03:10;;;;;;;3.30;0.80;;;20.30;96.00;;;;;;5049106;28;20028;-78
2022/05/17 08:05:37;;;;;;;2.35;0.40;;;20.30;96.00;;;;;;5066593;28;20048;-78
2022/05/17 08:08:03;;;;;;;3.25;0.82;;;20.30;96.10;;;;;;5045459;28;20043;-78
2022/05/17 08:10:31;;;;;;;2.95;0.50;;;20.20;96.10;;;;;;5044425;28;20107;-78
2022/05/17 08:12:57;;;;;;;4.57;0.70;;;20.20;96.10;;;;;;5002853;28;20051;-78
2022/05/17 08:15:24;;;;;;;4.70;0.80;;;20.20;96.20;;;;;;5051580;28;20423;-78
2022/05/17 08:17:51;;;;;;;2.67;0.80;;;20.20;96.20;;;;;;5009558;28;20036;-79
2022/05/17 08:20:18;;;;;;;4.03;0.77;;;20.20;96.30;;;;;;5064816;28;20041;-78
2022/05/17 08:22:45;;;;;;;2.83;0.55;;;20.20;96.20;;;;;;5030476;28;20043;-78
2022/05/17 08:28:01;;;;;;;3.28;0.70;;;20.30;96.30;;;;;;5043552;28;20696;-79
2022/05/17 08:30:29;;;;;;;3.70;0.80;;;20.30;96.40;;;;;;5045299;28;20123;-79
2022/05/17 08:33:17;;;;;;;5.88;0.80;;;20.30;96.20;;;;;;5047612;28;20028;-78
2022/05/17 08:35:50;;;;;;;3.40;0.65;;;20.30;96.10;;;;;;5048428;28;20039;-79
2022/05/17 08:38:28;;;;;;;3.85;0.68;;;20.40;95.90;;;;;;5063657;28;20036;-79
2022/05/17 08:41:05;;;;;;;4.47;0.93;;;20.40;95.60;;;;;;5048405;28;20043;-79
2022/05/17 08:44:23;;;;;;;4.80;0.80;;;20.50;95.60;;;;;;5044017;28;20044;-79
2022/05/17 08:47:20;;;;;;;4.55;0.80;;;20.60;95.50;;;;;;5034330;28;20036;-79
2022/05/17 08:50:28;;;;;;;5.88;0.70;;;20.80;95.30;;;;;;5044925;28;20055;-79
2022/05/17 08:53:01;;;;;;;4.47;1.27;;;20.90;94.90;;;;;;5065247;28;20028;-79
2022/05/17 08:55:36;;;;;;;5.60;1.00;;;20.90;94.80;;;;;;5065028;28;20601;-80
2022/05/17 08:58:27;;;;;;;5.85;1.73;;;20.90;94.50;;;;;;5047055;28;20033;-80
2022/05/17 09:00:59;;;;;;;6.03;1.00;;;20.80;93.90;;;;;;5062547;28;20380;-79
2022/05/17 09:03:51;;;;;;;5.53;0.82;;;20.80;94.20;;;;;;5066389;28;20024;-79
2022/05/17 09:07:14;;;;;;;4.28;0.70;;;20.80;94.30;;;;;;5058404;28;20392;-80
2022/05/17 09:09:56;;;;;;;4.25;0.60;;;20.90;94.30;;;;;;5037439;28;20597;-79
2022/05/17 09:13:01;;;;;;;10.13;1.10;;;21.10;94.00;;;;;;5036252;28;20518;-79
2022/05/17 09:15:29;;;;;;;4.10;0.60;;;21.30;93.80;;;;;;5017963;28;20041;-79
2022/05/17 09:17:59;;;;;;;3.95;0.70;;;21.30;93.70;;;;;;4982987;28;20041;-79
2022/05/17 09:20:32;;;;;;;4.13;0.70;;;21.30;93.70;;;;;;5023363;28;20464;-79
2022/05/17 09:22:58;;;;;;;3.28;0.70;;;21.20;93.50;;;;;;5022900;28;20026;-80
2022/05/17 09:25:49;;;;;;;3.17;0.77;;;21.30;93.70;;;;;;5019092;28;20033;-79
2022/05/17 09:28:27;;;;;;;5.07;0.80;;;21.50;93.40;;;;;;5035909;28;20029;-80
2022/05/17 09:31:12;;;;;;;4.63;0.85;;;21.70;93.10;;;;;;5019841;28;20025;-79
2022/05/17 09:33:43;;;;;;;4.63;0.73;;;21.90;92.70;;;;;;5005481;28;20048;-80
2022/05/17 09:36:31;;;;;;;3.63;0.55;;;22.00;92.60;;;;;;5019563;28;20049;-79
2022/05/17 09:39:01;;;;;;;3.72;0.68;;;22.00;92.60;;;;;;5017454;28;20495;-79
2022/05/17 09:41:36;;;;;;;4.45;1.00;;;22.10;92.60;;;;;;5019499;28;20066;-79
2022/05/17 09:44:10;;;;;;;6.35;0.88;;;22.20;92.50;;;;;;5007099;28;20037;-79
2022/05/17 09:46:47;;;;;;;3.90;0.60;;;22.30;92.40;;;;;;5018019;28;20049;-79
2022/05/17 09:53:10;;;;;;;4.65;0.60;;;22.60;91.70;;;;;;5037041;28;20025;-79
2022/05/17 09:55:30;;;;;;;3.22;0.70;;;22.60;91.60;;;;;;5017290;28;20044;-79
2022/05/17 09:58:01;;;;;;;3.97;0.60;;;22.60;91.50;;;;;;5020292;28;20139;-80
2022/05/17 10:00:54;;;;;;;3.78;0.60;;;22.50;91.50;;;;;;5019688;28;20044;-79
2022/05/17 10:03:32;;;;;;;3.63;0.80;;;22.60;91.50;;;;;;5006080;28;21981;-78
2022/05/17 10:06:01;;;;;;;5.85;1.23;;;22.60;91.30;;;;;;5018483;28;20280;-78
2022/05/17 10:08:55;;;;;;;4.18;0.90;;;22.70;91.00;;;;;;5035559;28;20134;-79
2022/05/17 10:11:25;;;;;;;6.28;0.70;;;22.80;90.70;;;;;;5038060;28;20052;-79
2022/05/17 10:14:01;;;;;;;4.57;0.70;;;22.90;90.50;;;;;;5027230;28;20041;-78
2022/05/17 10:16:40;;;;;;;3.80;0.60;;;23.10;90.30;;;;;;5024390;28;20052;-78
2022/05/17 10:19:35;;;;;;;4.40;0.95;;;23.30;90.10;;;;;;5059638;28;20460;-79
2022/05/17 10:22:11;;;;;;;4.00;0.70;;;23.60;89.60;;;;;;5004250;28;20472;-78
2022/05/17 10:24:54;;;;;;;5.85;1.35;;;24.10;88.50;;;;;;5043426;28;20044;-78
2022/05/17 10:27:26;;;;;;;6.70;1.05;;;24.60;87.30;;;;;;5038956;28;20036;-78
2022/05/17 10:30:14;;;;;;;8.40;1.02;;;25.00;84.90;;;;;;5032386;28;20029;-81
2022/05/17 10:32:57;;;;;;;5.03;0.70;;;25.20;82.50;;;;;;5012998;28;20021;-79
2022/05/17 10:35:30;;;;;;;5.80;1.35;;;25.30;83.30;;;;;;5060023;28;20029;-77
2022/05/17 10:38:13;;;;;;;6.22;1.17;;;25.60;81.80;;;;;;5038939;28;20021;-79
2022/05/17 10:40:48;;;;;;;7.57;2.42;;;25.60;81.00;;;;;;5047575;28;20510;-79
2022/05/17 10:43:27;;;;;;;7.95;2.45;;;25.60;80.40;;;;;;5044252;28;20028;-79
2022/05/17 10:46:09;;;;;;;4.68;1.40;;;25.90;81.30;;;;;;5040455;28;20040;-79
2022/05/17 10:48:54;;;;;;;5.03;1.30;;;26.30;81.30;;;;;;5042414;28;20029;-80
2022/05/17 10:51:27;;;;;;;10.00;2.10;;;26.40;80.10;;;;;;5045812;28;20033;-79
2022/05/17 10:54:09;;;;;;;9.82;1.58;;;26.30;79.80;;;;;;5031423;28;20435;-79
2022/05/17 10:56:47;;;;;;;5.45;1.73;;;26.20;80.20;;;;;;5047844;28;20044;-80
2022/05/17 10:59:41;;;;;;;7.05;1.70;;;26.30;80.00;;;;;;5047791;28;20048;-79
2022/05/17 11:02:10;;;;;;;6.18;1.75;;;26.40;79.50;;;;;;5044450;28;20037;-80
2022/05/17 11:04:58;;;;;;;6.00;1.70;;;26.70;79.80;;;;;;5046847;28;20041;-80
2022/05/17 11:07:40;;;;;;;4.95;2.10;;;27.10;78.20;;;;;;5045849;28;20048;-80
2022/05/17 11:10:18;;;;;;;7.82;2.47;;;27.50;77.50;;;;;;5050490;28;20503;-80
2022/05/17 11:12:52;;;;;;;6.10;1.95;;;27.80;75.90;;;;;;5056062;28;20021;-79
2022/05/17 11:15:24;;;;;;;7.50;2.22;;;28.40;75.70;;;;;;5029797;28;20032;-80
2022/05/17 11:17:58;;;;;;;6.25;2.10;;;28.70;73.90;;;;;;5043242;28;20135;-80
2022/05/17 11:20:31;;;;;;;5.70;1.80;;;28.50;73.30;;;;;;5028203;28;20053;-80
2022/05/17 11:22:58;;;;;;;10.13;2.78;;;28.10;73.40;;;;;;5062940;28;20033;-80
2022/05/17 11:25:45;;;;;;;5.25;1.77;;;27.70;74.20;;;;;;5043417;28;20045;-80
2022/05/17 11:28:17;;;;;;;7.90;1.80;;;27.30;74.50;;;;;;5042582;28;20123;-80
2022/05/17 11:30:51;;;;;;;7.85;2.42;;;27.10;74.60;;;;;;5029405;28;20041;-80
2022/05/17 11:33:24;;;;;;;7.93;2.55;;;27.10;74.50;;;;;;5044995;28;20021;-80
2022/05/17 11:35:56;;;;;;;8.55;2.72;;;27.30;74.20;;;;;;5052057;28;20029;-80
2022/05/17 11:38:35;;;;;;;7.85;2.38;;;27.50;73.60;;;;;;5045434;28;20033;-80
2022/05/17 11:41:19;;;;;;;6.55;2.83;;;27.60;73.30;;;;;;5060219;28;20033;-80
2022/05/17 11:44:05;;;;;;;7.18;2.42;;;27.70;72.70;;;;;;5047647;28;20055;-80
2022/05/17 11:46:37;;;;;;;8.85;3.00;;;27.70;72.50;;;;;;5040972;28;20041;-80
2022/05/17 11:49:06;;;;;;;;;;;27.70;72.20;;;;;;5045193;28;20452;-80
2022/05/17 11:51:41;;;;;;;6.32;1.98;;;27.60;72.10;;;;;;5028532;28;19916;-80
2022/05/17 11:54:10;;;;;;;4.93;2.13;;;27.60;72.30;;;;;;5042693;28;20040;-80
2022/05/17 11:56:39;;;;;;;6.32;2.05;;;27.50;71.90;;;;;;5042763;28;20017;-80
2022/05/17 11:59:36;;;;;;;;;;;27.40;72.20;;;;;;5044991;28;20044;-80
2022/05/17 12:02:22;;;;;;;7.22;1.75;;;27.30;72.40;;;;;;5044254;28;20288;-80
2022/05/17 12:04:52;;;;;;;10.15;2.88;;;27.40;72.60;;;;;;5044358;28;20044;-80
2022/05/17 12:07:23;;;;;;;5.95;2.25;;;27.40;71.80;;;;;;5046656;28;20055;-81
2022/05/17 12:09:54;;;;;;;5.60;2.33;;;27.60;72.00;;;;;;5063831;28;20396;-80
2022/05/17 12:12:39;;;;;;;5.83;1.50;;;27.70;71.40;;;;;;5061205;28;20028;-80
2022/05/17 12:15:31;;;;;;;5.57;1.50;;;27.90;71.20;;;;;;5064986;28;20017;-80
2022/05/17 12:18:35;;;;;;;5.80;1.70;;;28.40;70.20;;;;;;5038906;28;20028;-80
2022/05/17 12:21:44;;;;;;;6.07;1.30;;;28.90;68.80;;;;;;5031866;28;20360;-80
2022/05/17 12:24:41;;;;;;;5.80;1.58;;;29.20;67.90;;;;;;5064824;28;20452;-80
2022/05/17 12:27:54;;;;;;;4.43;1.45;;;29.40;67.10;;;;;;5039317;28;20032;-80
2022/05/17 12:31:02;;;;;;;4.65;1.23;;;29.60;66.30;;;;;;5062106;28;20051;-80
2022/05/17 12:33:41;;;;;;;5.07;1.70;;;29.70;65.90;;;;;;5063089;28;20012;-80
2022/05/17 12:43:07;;;;;;;4.30;1.52;;;31.40;62.60;;;;;;5013673;28;20620;-80
2022/05/17 12:45:49;;;;;;;6.85;1.90;;;32.10;61.80;;;;;;5032102;28;20024;-80
2022/05/17 12:48:33;;;;;;;4.68;1.30;;;33.10;59.90;;;;;;5024607;28;20514;-81
2022/05/17 12:51:04;;;;;;;4.07;1.40;;;33.90;57.80;;;;;;5062567;28;20036;-81
2022/05/17 12:53:49;;;;;;;5.72;1.65;;;34.50;56.00;;;;;;5033174;28;20028;-81
2022/05/17 12:56:43;;;;;;;6.53;1.90;;;34.90;54.50;;;;;;5041403;28;20029;-81
2022/05/17 12:59:14;;;;;;;10.10;2.25;;;35.50;53.80;;;;;;5062265;28;20044;-78
2022/05/17 13:02:15;;;;;;;4.40;1.70;;;36.00;52.50;;;;;;5031109;28;21299;-80
2022/05/17 13:04:48;;;;;;;6.80;1.52;;;36.50;51.60;;;;;;5038923;28;20037;-81
2022/05/17 13:07:27;;;;;;;3.92;1.20;;;36.80;50.00;;;;;;5042840;28;20052;-80
2022/05/17 13:10:13;;;;;;;4.53;0.95;;;36.60;48.90;;;;;;5046694;28;20064;-80
2022/05/17 13:12:56;;;;;;;4.63;1.73;;;36.60;49.10;;;;;;5044980;28;20067;-80
2022/05/17 13:15:37;;;;;;;4.57;0.80;;;36.80;47.80;;;;;;5031890;28;20029;-81
2022/05/17 13:18:10;;;;;;;4.57;0.90;;;36.90;47.90;;;;;;5030312;28;20032;-81
2022/05/17 13:20:48;;;;;;;4.20;0.90;;;37.00;47.40;;;;;;5053478;28;20029;-80
2022/05/17 13:23:21;;;;;;;3.22;0.88;;;37.30;46.70;;;;;;5047794;28;20475;-80
2022/05/17 13:25:51;;;;;;;5.05;0.80;;;37.60;46.50;;;;;;5055131;28;20376;-80
2022/05/17 13:29:25;;;;;;;3.28;0.60;;;38.20;45.60;;;;;;4997607;28;20042;-81
2022/05/17 13:32:23;;;;;;;7.07;1.73;;;38.50;44.70;;;;;;5060418;28;20017;-81
2022/05/17 13:35:27;;;;;;;5.15;2.83;;;38.60;44.00;;;;;;5045139;28;20029;-81
2022/05/17 13:38:12;;;;;;;4.80;1.48;;;38.40;43.90;;;;;;5029479;28;20428;-81